| Date | Time | Temp. (oF) | Dew Point (oF) | Rel. Hum. (%) | Press. (in.) | Wind Dir. | Wind Speed (mph) | Hourly Rainfall (in.) |
|
|---|---|---|---|---|---|---|---|---|---|
| 1 | 04/18 | 00:00 | 54 | 32 | 44 | 30.11 | W | 5 | 0.00 |
| 2 | 04/17 | 23:00 | 53 | 33 | 48 | 30.12 | WSW | 2 | 0.00 |
| 3 | 04/17 | 22:00 | 58 | 31 | 37 | 30.13 | WSW | 1 | 0.00 |
| 4 | 04/17 | 21:00 | 59 | 31 | 36 | 30.12 | WSW | 3 | 0.00 |
| 5 | 04/17 | 20:00 | 64 | 31 | 30 | 30.12 | W | 1 | 0.00 |
| 6 | 04/17 | 19:00 | 68 | 31 | 26 | 30.12 | NW | 0 | 0.00 |
| 7 | 04/17 | 18:00 | 69 | 30 | 24 | 30.13 | NW | 6 | 0.00 |
| 8 | 04/17 | 17:00 | 69 | 32 | 26 | 30.15 | WSW | 6 | 0.00 |
| 9 | 04/17 | 16:00 | 68 | 30 | 25 | 30.18 | SW | 9 | 0.00 |
| 10 | 04/17 | 15:00 | 66 | 32 | 29 | 30.23 | W | 6 | 0.00 |
| 11 | 04/17 | 14:00 | 64 | 35 | 35 | 30.25 | NW | 2 | 0.00 |
| 12 | 04/17 | 13:00 | 63 | 32 | 32 | 30.28 | NNW | 8 | 0.00 |
| 13 | 04/17 | 12:00 | 61 | 34 | 37 | 30.31 | N | 9 | 0.00 |
| 14 | 04/17 | 11:00 | 59 | 36 | 43 | 30.33 | NNW | 7 | 0.00 |
| 15 | 04/17 | 10:00 | 54 | 33 | 45 | 30.34 | NW | 5 | 0.00 |
| 16 | 04/17 | 09:00 | 49 | 42 | 79 | 30.34 | SSE | 1 | 0.00 |
| 17 | 04/17 | 08:00 | 39 | 37 | 96 | 30.34 | ESE | 0 | 0.00 |
| 18 | 04/17 | 07:00 | 34 | 32 | 96 | 30.34 | ESE | 0 | 0.00 |
| 19 | 04/17 | 06:00 | 34 | 32 | 94 | 30.32 | ESE | 0 | 0.00 |
| 20 | 04/17 | 05:00 | 36 | 34 | 93 | 30.31 | E | 0 | 0.00 |
| 21 | 04/17 | 04:00 | 37 | 34 | 91 | 30.31 | E | 0 | 0.00 |
| 22 | 04/17 | 03:00 | 39 | 35 | 88 | 30.30 | E | 0 | 0.00 |
| 23 | 04/17 | 02:00 | 40 | 35 | 85 | 30.30 | E | 0 | 0.00 |
| 24 | 04/17 | 01:00 | 42 | 37 | 85 | 30.31 | SW | 0 | 0.00 |